sensor_id;sensor_type;location;lat;lon;timestamp;temperature;humidity
74661;SHT31;63191;39.566;2.654;2023-04-19T00:02:04;13.35;61.25
74661;SHT31;63191;39.566;2.654;2023-04-19T00:04:30;13.34;61.20
74661;SHT31;63191;39.566;2.654;2023-04-19T00:06:57;13.33;61.20
74661;SHT31;63191;39.566;2.654;2023-04-19T00:09:23;13.33;61.19
74661;SHT31;63191;39.566;2.654;2023-04-19T00:11:48;13.32;61.25
74661;SHT31;63191;39.566;2.654;2023-04-19T00:14:14;13.30;61.28
74661;SHT31;63191;39.566;2.654;2023-04-19T00:16:40;13.30;61.15
74661;SHT31;63191;39.566;2.654;2023-04-19T00:19:06;13.29;61.06
74661;SHT31;63191;39.566;2.654;2023-04-19T00:21:32;13.28;61.00
74661;SHT31;63191;39.566;2.654;2023-04-19T00:24:00;13.27;60.91
74661;SHT31;63191;39.566;2.654;2023-04-19T00:26:27;13.27;60.90
74661;SHT31;63191;39.566;2.654;2023-04-19T00:28:53;13.27;60.97
74661;SHT31;63191;39.566;2.654;2023-04-19T00:31:20;13.26;60.96
74661;SHT31;63191;39.566;2.654;2023-04-19T00:33:46;13.24;61.00
74661;SHT31;63191;39.566;2.654;2023-04-19T00:36:14;13.23;60.96
74661;SHT31;63191;39.566;2.654;2023-04-19T00:38:41;13.22;60.99
74661;SHT31;63191;39.566;2.654;2023-04-19T00:41:07;13.21;61.01
74661;SHT31;63191;39.566;2.654;2023-04-19T00:43:32;13.19;61.11
74661;SHT31;63191;39.566;2.654;2023-04-19T00:45:58;13.18;61.21
74661;SHT31;63191;39.566;2.654;2023-04-19T00:48:24;13.16;61.36
74661;SHT31;63191;39.566;2.654;2023-04-19T00:50:50;13.14;61.61
74661;SHT31;63191;39.566;2.654;2023-04-19T00:53:16;13.12;61.78
74661;SHT31;63191;39.566;2.654;2023-04-19T00:55:42;13.10;61.87
74661;SHT31;63191;39.566;2.654;2023-04-19T00:58:08;13.07;62.04
74661;SHT31;63191;39.566;2.654;2023-04-19T01:00:34;13.03;62.26
74661;SHT31;63191;39.566;2.654;2023-04-19T01:03:01;13.02;62.59
74661;SHT31;63191;39.566;2.654;2023-04-19T01:05:27;12.99;62.57
74661;SHT31;63191;39.566;2.654;2023-04-19T01:07:54;12.97;62.68
74661;SHT31;63191;39.566;2.654;2023-04-19T01:10:20;12.94;62.86
74661;SHT31;63191;39.566;2.654;2023-04-19T01:12:46;12.93;62.94
74661;SHT31;63191;39.566;2.654;2023-04-19T01:15:11;12.91;62.95
74661;SHT31;63191;39.566;2.654;2023-04-19T01:17:39;12.87;62.90
74661;SHT31;63191;39.566;2.654;2023-04-19T01:20:07;12.84;62.85
74661;SHT31;63191;39.566;2.654;2023-04-19T01:22:36;12.80;62.86
74661;SHT31;63191;39.566;2.654;2023-04-19T01:25:04;12.76;62.88
74661;SHT31;63191;39.566;2.654;2023-04-19T01:27:31;12.73;62.78
74661;SHT31;63191;39.566;2.654;2023-04-19T01:29:57;12.70;62.60
74661;SHT31;63191;39.566;2.654;2023-04-19T01:32:23;12.68;62.25
74661;SHT31;63191;39.566;2.654;2023-04-19T01:34:50;12.67;61.78
74661;SHT31;63191;39.566;2.654;2023-04-19T01:37:16;12.67;61.23
74661;SHT31;63191;39.566;2.654;2023-04-19T01:39:42;12.67;60.70
74661;SHT31;63191;39.566;2.654;2023-04-19T01:42:08;12.66;60.12
74661;SHT31;63191;39.566;2.654;2023-04-19T01:44:33;12.67;59.32
74661;SHT31;63191;39.566;2.654;2023-04-19T01:46:59;12.69;58.68
74661;SHT31;63191;39.566;2.654;2023-04-19T01:49:25;12.71;58.28
74661;SHT31;63191;39.566;2.654;2023-04-19T01:51:50;12.73;57.93
74661;SHT31;63191;39.566;2.654;2023-04-19T01:54:16;12.75;57.63
74661;SHT31;63191;39.566;2.654;2023-04-19T01:56:42;12.78;57.29
74661;SHT31;63191;39.566;2.654;2023-04-19T01:59:08;12.79;56.94
74661;SHT31;63191;39.566;2.654;2023-04-19T02:01:33;12.79;56.69
74661;SHT31;63191;39.566;2.654;2023-04-19T02:04:00;12.80;56.37
74661;SHT31;63191;39.566;2.654;2023-04-19T02:06:27;12.81;56.17
74661;SHT31;63191;39.566;2.654;2023-04-19T02:08:53;12.82;56.01
74661;SHT31;63191;39.566;2.654;2023-04-19T02:11:19;12.83;55.93
74661;SHT31;63191;39.566;2.654;2023-04-19T02:13:45;12.83;55.87
74661;SHT31;63191;39.566;2.654;2023-04-19T02:16:11;12.82;55.86
74661;SHT31;63191;39.566;2.654;2023-04-19T02:18:36;12.80;55.89
74661;SHT31;63191;39.566;2.654;2023-04-19T02:21:07;12.80;55.84
74661;SHT31;63191;39.566;2.654;2023-04-19T02:23:34;12.78;55.80
74661;SHT31;63191;39.566;2.654;2023-04-19T02:26:00;12.73;55.82
74661;SHT31;63191;39.566;2.654;2023-04-19T02:28:28;12.70;55.84
74661;SHT31;63191;39.566;2.654;2023-04-19T02:30:55;12.66;55.86
74661;SHT31;63191;39.566;2.654;2023-04-19T02:33:22;12.62;55.80
74661;SHT31;63191;39.566;2.654;2023-04-19T02:35:51;12.57;55.82
74661;SHT31;63191;39.566;2.654;2023-04-19T02:38:17;12.52;55.81
74661;SHT31;63191;39.566;2.654;2023-04-19T02:40:43;12.49;55.80
74661;SHT31;63191;39.566;2.654;2023-04-19T02:43:08;12.46;55.85
74661;SHT31;63191;39.566;2.654;2023-04-19T02:45:34;12.43;55.90
74661;SHT31;63191;39.566;2.654;2023-04-19T02:48:01;12.39;55.82
74661;SHT31;63191;39.566;2.654;2023-04-19T02:50:27;12.35;55.83
74661;SHT31;63191;39.566;2.654;2023-04-19T02:52:52;12.31;55.82
74661;SHT31;63191;39.566;2.654;2023-04-19T02:55:18;12.29;55.81
74661;SHT31;63191;39.566;2.654;2023-04-19T02:57:44;12.25;55.92
74661;SHT31;63191;39.566;2.654;2023-04-19T03:00:10;12.23;55.91
74661;SHT31;63191;39.566;2.654;2023-04-19T03:02:36;12.21;56.01
74661;SHT31;63191;39.566;2.654;2023-04-19T03:05:03;12.18;56.20
74661;SHT31;63191;39.566;2.654;2023-04-19T03:07:30;12.16;56.37
74661;SHT31;63191;39.566;2.654;2023-04-19T03:09:56;12.14;56.23
74661;SHT31;63191;39.566;2.654;2023-04-19T03:12:22;12.12;56.04
74661;SHT31;63191;39.566;2.654;2023-04-19T03:14:48;12.11;55.90
74661;SHT31;63191;39.566;2.654;2023-04-19T03:17:15;12.09;55.71
74661;SHT31;63191;39.566;2.654;2023-04-19T03:19:40;12.07;55.60
74661;SHT31;63191;39.566;2.654;2023-04-19T03:22:06;12.04;55.57
74661;SHT31;63191;39.566;2.654;2023-04-19T03:24:32;12.02;55.50
74661;SHT31;63191;39.566;2.654;2023-04-19T03:26:59;11.99;55.50
74661;SHT31;63191;39.566;2.654;2023-04-19T03:29:25;11.98;55.52
74661;SHT31;63191;39.566;2.654;2023-04-19T03:31:51;11.97;55.63
74661;SHT31;63191;39.566;2.654;2023-04-19T03:34:16;11.96;55.97
74661;SHT31;63191;39.566;2.654;2023-04-19T03:36:45;11.95;56.41
74661;SHT31;63191;39.566;2.654;2023-04-19T03:39:11;11.96;56.89
74661;SHT31;63191;39.566;2.654;2023-04-19T03:41:36;11.97;57.34
74661;SHT31;63191;39.566;2.654;2023-04-19T03:44:05;11.97;57.50
74661;SHT31;63191;39.566;2.654;2023-04-19T03:46:32;11.97;57.40
74661;SHT31;63191;39.566;2.654;2023-04-19T03:48:58;11.96;57.40
74661;SHT31;63191;39.566;2.654;2023-04-19T03:51:23;11.95;57.38
74661;SHT31;63191;39.566;2.654;2023-04-19T03:53:51;11.95;57.32
74661;SHT31;63191;39.566;2.654;2023-04-19T03:56:17;11.96;57.27
74661;SHT31;63191;39.566;2.654;2023-04-19T03:58:42;11.97;57.15
74661;SHT31;63191;39.566;2.654;2023-04-19T04:01:16;11.96;56.99
74661;SHT31;63191;39.566;2.654;2023-04-19T04:03:43;11.95;56.87
74661;SHT31;63191;39.566;2.654;2023-04-19T04:06:09;11.95;56.66
74661;SHT31;63191;39.566;2.654;2023-04-19T04:08:34;11.93;56.56
74661;SHT31;63191;39.566;2.654;2023-04-19T04:11:00;11.93;56.47
74661;SHT31;63191;39.566;2.654;2023-04-19T04:13:27;11.92;56.34
74661;SHT31;63191;39.566;2.654;2023-04-19T04:15:53;11.90;56.31
74661;SHT31;63191;39.566;2.654;2023-04-19T04:18:19;11.89;56.30
74661;SHT31;63191;39.566;2.654;2023-04-19T04:20:45;11.88;56.21
74661;SHT31;63191;39.566;2.654;2023-04-19T04:23:12;11.88;56.10
74661;SHT31;63191;39.566;2.654;2023-04-19T04:25:38;11.88;56.00
74661;SHT31;63191;39.566;2.654;2023-04-19T04:28:06;11.86;55.93
74661;SHT31;63191;39.566;2.654;2023-04-19T04:30:32;11.85;55.84
74661;SHT31;63191;39.566;2.654;2023-04-19T04:32:59;11.86;55.75
74661;SHT31;63191;39.566;2.654;2023-04-19T04:35:25;11.85;55.57
74661;SHT31;63191;39.566;2.654;2023-04-19T04:37:51;11.86;55.44
74661;SHT31;63191;39.566;2.654;2023-04-19T04:40:20;11.86;55.19
74661;SHT31;63191;39.566;2.654;2023-04-19T04:42:47;11.88;55.05
74661;SHT31;63191;39.566;2.654;2023-04-19T04:45:13;11.89;54.81
74661;SHT31;63191;39.566;2.654;2023-04-19T04:47:42;11.91;54.66
74661;SHT31;63191;39.566;2.654;2023-04-19T04:50:10;11.91;54.53
74661;SHT31;63191;39.566;2.654;2023-04-19T04:52:36;11.90;54.49
74661;SHT31;63191;39.566;2.654;2023-04-19T04:55:01;11.89;54.50
74661;SHT31;63191;39.566;2.654;2023-04-19T04:57:27;11.86;54.62
74661;SHT31;63191;39.566;2.654;2023-04-19T04:59:53;11.84;54.77
74661;SHT31;63191;39.566;2.654;2023-04-19T05:02:21;11.81;54.86
74661;SHT31;63191;39.566;2.654;2023-04-19T05:04:48;11.79;54.82
74661;SHT31;63191;39.566;2.654;2023-04-19T05:07:14;11.77;54.80
74661;SHT31;63191;39.566;2.654;2023-04-19T05:09:43;11.74;54.90
74661;SHT31;63191;39.566;2.654;2023-04-19T05:12:08;11.73;55.13
74661;SHT31;63191;39.566;2.654;2023-04-19T05:14:36;11.73;55.42
74661;SHT31;63191;39.566;2.654;2023-04-19T05:17:01;11.73;55.65
74661;SHT31;63191;39.566;2.654;2023-04-19T05:19:27;11.74;55.78
74661;SHT31;63191;39.566;2.654;2023-04-19T05:21:53;11.74;55.86
74661;SHT31;63191;39.566;2.654;2023-04-19T05:24:19;11.75;56.03
74661;SHT31;63191;39.566;2.654;2023-04-19T05:26:44;11.77;56.10
74661;SHT31;63191;39.566;2.654;2023-04-19T05:29:10;11.79;56.11
74661;SHT31;63191;39.566;2.654;2023-04-19T05:31:36;11.80;56.10
74661;SHT31;63191;39.566;2.654;2023-04-19T05:34:02;11.82;56.06
74661;SHT31;63191;39.566;2.654;2023-04-19T05:36:28;11.88;56.00
74661;SHT31;63191;39.566;2.654;2023-04-19T05:38:53;11.94;56.01
74661;SHT31;63191;39.566;2.654;2023-04-19T05:41:19;12.14;55.99
74661;SHT31;63191;39.566;2.654;2023-04-19T05:43:46;12.54;55.66
74661;SHT31;63191;39.566;2.654;2023-04-19T05:46:12;13.26;54.69
74661;SHT31;63191;39.566;2.654;2023-04-19T05:48:38;13.99;53.58
74661;SHT31;63191;39.566;2.654;2023-04-19T05:51:04;14.74;52.38
74661;SHT31;63191;39.566;2.654;2023-04-19T05:53:30;15.52;51.04
74661;SHT31;63191;39.566;2.654;2023-04-19T05:55:55;16.25;49.58
74661;SHT31;63191;39.566;2.654;2023-04-19T05:58:21;16.98;47.99
74661;SHT31;63191;39.566;2.654;2023-04-19T06:00:47;17.70;46.18
74661;SHT31;63191;39.566;2.654;2023-04-19T06:03:13;18.44;44.81
74661;SHT31;63191;39.566;2.654;2023-04-19T06:05:40;19.15;43.67
74661;SHT31;63191;39.566;2.654;2023-04-19T06:08:06;19.86;42.74
74661;SHT31;63191;39.566;2.654;2023-04-19T06:10:34;20.62;41.45
74661;SHT31;63191;39.566;2.654;2023-04-19T06:13:01;21.37;40.17
74661;SHT31;63191;39.566;2.654;2023-04-19T06:15:28;22.08;38.82
74661;SHT31;63191;39.566;2.654;2023-04-19T06:17:55;22.73;37.50
74661;SHT31;63191;39.566;2.654;2023-04-19T06:20:22;23.35;36.28
74661;SHT31;63191;39.566;2.654;2023-04-19T06:22:48;23.97;35.13
74661;SHT31;63191;39.566;2.654;2023-04-19T06:25:14;24.60;34.42
74661;SHT31;63191;39.566;2.654;2023-04-19T06:27:40;25.23;33.56
74661;SHT31;63191;39.566;2.654;2023-04-19T06:30:06;25.82;32.64
74661;SHT31;63191;39.566;2.654;2023-04-19T06:32:34;26.46;31.61
74661;SHT31;63191;39.566;2.654;2023-04-19T06:34:59;27.08;30.47
74661;SHT31;63191;39.566;2.654;2023-04-19T06:37:26;27.63;29.57
74661;SHT31;63191;39.566;2.654;2023-04-19T06:39:52;28.17;28.77
74661;SHT31;63191;39.566;2.654;2023-04-19T06:42:17;28.74;28.28
74661;SHT31;63191;39.566;2.654;2023-04-19T06:44:44;29.23;27.84
74661;SHT31;63191;39.566;2.654;2023-04-19T06:47:11;29.31;27.39
74661;SHT31;63191;39.566;2.654;2023-04-19T06:49:36;28.83;27.25
74661;SHT31;63191;39.566;2.654;2023-04-19T06:52:02;28.54;27.30
74661;SHT31;63191;39.566;2.654;2023-04-19T06:54:28;28.96;26.98
74661;SHT31;63191;39.566;2.654;2023-04-19T06:56:55;29.46;26.31
74661;SHT31;63191;39.566;2.654;2023-04-19T06:59:21;29.77;25.63
74661;SHT31;63191;39.566;2.654;2023-04-19T07:01:47;30.03;25.37
74661;SHT31;63191;39.566;2.654;2023-04-19T07:04:13;29.67;25.71
74661;SHT31;63191;39.566;2.654;2023-04-19T07:06:39;28.60;26.41
74661;SHT31;63191;39.566;2.654;2023-04-19T07:09:05;27.52;26.72
74661;SHT31;63191;39.566;2.654;2023-04-19T07:11:35;26.56;27.80
74661;SHT31;63191;39.566;2.654;2023-04-19T07:14:02;25.75;28.48
74661;SHT31;63191;39.566;2.654;2023-04-19T07:16:28;25.03;29.16
74661;SHT31;63191;39.566;2.654;2023-04-19T07:18:54;24.49;29.74
74661;SHT31;63191;39.566;2.654;2023-04-19T07:21:21;24.02;30.38
74661;SHT31;63191;39.566;2.654;2023-04-19T07:23:48;23.54;31.10
74661;SHT31;63191;39.566;2.654;2023-04-19T07:26:14;23.05;31.60
74661;SHT31;63191;39.566;2.654;2023-04-19T07:28:40;22.65;32.60
74661;SHT31;63191;39.566;2.654;2023-04-19T07:31:06;22.72;32.98
74661;SHT31;63191;39.566;2.654;2023-04-19T07:33:32;22.77;33.26
74661;SHT31;63191;39.566;2.654;2023-04-19T07:35:59;22.48;34.80
74661;SHT31;63191;39.566;2.654;2023-04-19T07:38:24;22.39;35.84
74661;SHT31;63191;39.566;2.654;2023-04-19T07:40:50;22.21;36.29
74661;SHT31;63191;39.566;2.654;2023-04-19T07:43:17;21.80;37.34
74661;SHT31;63191;39.566;2.654;2023-04-19T07:45:42;21.65;37.24
74661;SHT31;63191;39.566;2.654;2023-04-19T07:48:08;21.62;36.89
74661;SHT31;63191;39.566;2.654;2023-04-19T07:50:34;21.37;37.75
74661;SHT31;63191;39.566;2.654;2023-04-19T07:53:00;21.28;37.72
74661;SHT31;63191;39.566;2.654;2023-04-19T07:55:28;21.56;37.77
74661;SHT31;63191;39.566;2.654;2023-04-19T07:57:54;21.55;38.59
74661;SHT31;63191;39.566;2.654;2023-04-19T08:00:20;21.32;39.70
74661;SHT31;63191;39.566;2.654;2023-04-19T08:02:46;21.21;40.68
74661;SHT31;63191;39.566;2.654;2023-04-19T08:05:13;21.39;40.78
74661;SHT31;63191;39.566;2.654;2023-04-19T08:07:44;21.42;40.63
74661;SHT31;63191;39.566;2.654;2023-04-19T08:10:10;21.31;40.79
74661;SHT31;63191;39.566;2.654;2023-04-19T08:12:36;21.44;40.59
74661;SHT31;63191;39.566;2.654;2023-04-19T08:15:03;22.07;38.32
74661;SHT31;63191;39.566;2.654;2023-04-19T08:17:31;22.61;35.78
74661;SHT31;63191;39.566;2.654;2023-04-19T08:20:00;22.42;34.69
74661;SHT31;63191;39.566;2.654;2023-04-19T08:22:26;22.27;34.39
74661;SHT31;63191;39.566;2.654;2023-04-19T08:25:03;22.23;34.37
74661;SHT31;63191;39.566;2.654;2023-04-19T08:27:31;22.62;33.90
74661;SHT31;63191;39.566;2.654;2023-04-19T08:29:58;22.84;32.91
74661;SHT31;63191;39.566;2.654;2023-04-19T08:32:23;22.64;32.75
74661;SHT31;63191;39.566;2.654;2023-04-19T08:34:51;22.50;32.32
74661;SHT31;63191;39.566;2.654;2023-04-19T08:37:17;22.48;32.22
74661;SHT31;63191;39.566;2.654;2023-04-19T08:39:43;22.63;31.97
74661;SHT31;63191;39.566;2.654;2023-04-19T08:42:09;22.61;32.51
74661;SHT31;63191;39.566;2.654;2023-04-19T08:44:35;22.51;32.53
74661;SHT31;63191;39.566;2.654;2023-04-19T08:47:05;22.38;31.88
74661;SHT31;63191;39.566;2.654;2023-04-19T08:49:35;22.25;32.25
74661;SHT31;63191;39.566;2.654;2023-04-19T08:52:12;22.15;32.48
74661;SHT31;63191;39.566;2.654;2023-04-19T08:54:41;22.62;32.49
74661;SHT31;63191;39.566;2.654;2023-04-19T08:57:08;23.44;31.00
74661;SHT31;63191;39.566;2.654;2023-04-19T08:59:33;23.55;30.80
74661;SHT31;63191;39.566;2.654;2023-04-19T09:02:01;23.29;31.31
74661;SHT31;63191;39.566;2.654;2023-04-19T09:04:29;23.21;31.52
74661;SHT31;63191;39.566;2.654;2023-04-19T09:06:55;23.21;31.29
74661;SHT31;63191;39.566;2.654;2023-04-19T09:09:22;23.42;30.95
74661;SHT31;63191;39.566;2.654;2023-04-19T09:11:53;24.14;30.10
74661;SHT31;63191;39.566;2.654;2023-04-19T09:14:19;24.82;29.10
74661;SHT31;63191;39.566;2.654;2023-04-19T09:16:46;24.95;29.12
74661;SHT31;63191;39.566;2.654;2023-04-19T09:19:15;24.57;29.59
74661;SHT31;63191;39.566;2.654;2023-04-19T09:21:41;24.34;29.97
74661;SHT31;63191;39.566;2.654;2023-04-19T09:24:07;24.20;30.02
74661;SHT31;63191;39.566;2.654;2023-04-19T09:26:34;24.13;29.89
74661;SHT31;63191;39.566;2.654;2023-04-19T09:29:04;24.37;30.53
74661;SHT31;63191;39.566;2.654;2023-04-19T09:31:34;25.24;29.59
74661;SHT31;63191;39.566;2.654;2023-04-19T09:34:12;25.97;27.98
74661;SHT31;63191;39.566;2.654;2023-04-19T09:36:43;26.03;27.45
74661;SHT31;63191;39.566;2.654;2023-04-19T09:39:09;25.47;27.49
74661;SHT31;63191;39.566;2.654;2023-04-19T09:41:51;25.05;28.07
74661;SHT31;63191;39.566;2.654;2023-04-19T09:44:22;24.74;28.74
74661;SHT31;63191;39.566;2.654;2023-04-19T09:46:49;24.58;29.13
74661;SHT31;63191;39.566;2.654;2023-04-19T09:49:23;24.57;29.48
74661;SHT31;63191;39.566;2.654;2023-04-19T09:51:53;24.98;28.88
74661;SHT31;63191;39.566;2.654;2023-04-19T09:54:21;25.52;27.70
74661;SHT31;63191;39.566;2.654;2023-04-19T09:56:49;25.80;27.45
74661;SHT31;63191;39.566;2.654;2023-04-19T09:59:17;25.63;27.71
74661;SHT31;63191;39.566;2.654;2023-04-19T10:01:43;25.17;28.13
74661;SHT31;63191;39.566;2.654;2023-04-19T10:04:12;24.94;28.78
74661;SHT31;63191;39.566;2.654;2023-04-19T10:06:52;24.89;28.96
74661;SHT31;63191;39.566;2.654;2023-04-19T10:09:50;24.83;28.88
74661;SHT31;63191;39.566;2.654;2023-04-19T10:12:20;24.86;29.11
74661;SHT31;63191;39.566;2.654;2023-04-19T10:14:55;25.22;29.45
74661;SHT31;63191;39.566;2.654;2023-04-19T10:17:22;26.10;28.73
74661;SHT31;63191;39.566;2.654;2023-04-19T10:22:47;27.11;26.72
74661;SHT31;63191;39.566;2.654;2023-04-19T10:25:19;26.71;26.72
74661;SHT31;63191;39.566;2.654;2023-04-19T10:28:27;26.16;27.41
74661;SHT31;63191;39.566;2.654;2023-04-19T10:31:03;25.90;27.29
74661;SHT31;63191;39.566;2.654;2023-04-19T10:33:44;25.72;27.27
74661;SHT31;63191;39.566;2.654;2023-04-19T10:36:24;25.71;27.45
74661;SHT31;63191;39.566;2.654;2023-04-19T10:39:01;25.83;27.50
74661;SHT31;63191;39.566;2.654;2023-04-19T10:41:55;26.18;27.75
74661;SHT31;63191;39.566;2.654;2023-04-19T10:47:00;27.65;26.02
74661;SHT31;63191;39.566;2.654;2023-04-19T10:49:27;28.05;25.30
74661;SHT31;63191;39.566;2.654;2023-04-19T10:51:56;28.16;24.91
74661;SHT31;63191;39.566;2.654;2023-04-19T10:54:37;27.85;25.31
74661;SHT31;63191;39.566;2.654;2023-04-19T11:07:18;26.51;25.78
74661;SHT31;63191;39.566;2.654;2023-04-19T11:09:47;26.37;26.75
74661;SHT31;63191;39.566;2.654;2023-04-19T11:12:14;26.29;26.96
74661;SHT31;63191;39.566;2.654;2023-04-19T11:14:47;26.30;26.89
74661;SHT31;63191;39.566;2.654;2023-04-19T11:17:29;26.25;27.23
74661;SHT31;63191;39.566;2.654;2023-04-19T11:20:03;26.17;27.45
74661;SHT31;63191;39.566;2.654;2023-04-19T11:22:45;26.12;27.87
74661;SHT31;63191;39.566;2.654;2023-04-19T11:25:15;26.13;27.81
74661;SHT31;63191;39.566;2.654;2023-04-19T11:27:44;26.11;27.31
74661;SHT31;63191;39.566;2.654;2023-04-19T11:30:19;26.05;27.34
74661;SHT31;63191;39.566;2.654;2023-04-19T11:32:52;26.07;27.72
74661;SHT31;63191;39.566;2.654;2023-04-19T11:35:24;26.16;27.86
74661;SHT31;63191;39.566;2.654;2023-04-19T11:37:53;26.31;27.72
74661;SHT31;63191;39.566;2.654;2023-04-19T11:40:20;26.55;27.94
74661;SHT31;63191;39.566;2.654;2023-04-19T11:42:54;27.12;27.74
74661;SHT31;63191;39.566;2.654;2023-04-19T11:45:34;27.89;26.75
74661;SHT31;63191;39.566;2.654;2023-04-19T11:48:05;28.66;25.68
74661;SHT31;63191;39.566;2.654;2023-04-19T11:50:39;29.31;25.13
74661;SHT31;63191;39.566;2.654;2023-04-19T11:55:44;29.70;24.34
74661;SHT31;63191;39.566;2.654;2023-04-19T11:58:22;29.43;23.83
74661;SHT31;63191;39.566;2.654;2023-04-19T12:00:54;29.01;24.01
74661;SHT31;63191;39.566;2.654;2023-04-19T12:03:22;28.65;23.84
74661;SHT31;63191;39.566;2.654;2023-04-19T12:05:53;28.30;24.49
74661;SHT31;63191;39.566;2.654;2023-04-19T12:08:34;28.06;25.39
74661;SHT31;63191;39.566;2.654;2023-04-19T12:11:00;27.93;25.77
74661;SHT31;63191;39.566;2.654;2023-04-19T12:13:28;27.77;26.05
74661;SHT31;63191;39.566;2.654;2023-04-19T12:15:55;27.62;25.56
74661;SHT31;63191;39.566;2.654;2023-04-19T12:18:22;27.55;25.44
74661;SHT31;63191;39.566;2.654;2023-04-19T12:20:49;27.55;24.77
74661;SHT31;63191;39.566;2.654;2023-04-19T12:23:17;27.19;34.00
74661;SHT31;63191;39.566;2.654;2023-04-19T12:25:44;26.19;38.06
74661;SHT31;63191;39.566;2.654;2023-04-19T12:28:12;25.13;39.46
74661;SHT31;63191;39.566;2.654;2023-04-19T12:30:39;24.22;41.86
74661;SHT31;63191;39.566;2.654;2023-04-19T12:33:06;23.53;44.54
74661;SHT31;63191;39.566;2.654;2023-04-19T12:35:32;23.02;45.99
74661;SHT31;63191;39.566;2.654;2023-04-19T12:37:59;22.67;47.28
74661;SHT31;63191;39.566;2.654;2023-04-19T12:40:26;22.64;47.67
74661;SHT31;63191;39.566;2.654;2023-04-19T12:42:54;22.95;47.44
74661;SHT31;63191;39.566;2.654;2023-04-19T12:45:20;23.41;46.87
74661;SHT31;63191;39.566;2.654;2023-04-19T12:47:46;23.85;45.73
74661;SHT31;63191;39.566;2.654;2023-04-19T12:50:13;24.45;45.16
74661;SHT31;63191;39.566;2.654;2023-04-19T12:52:40;25.37;43.41
74661;SHT31;63191;39.566;2.654;2023-04-19T12:55:07;26.51;40.89
74661;SHT31;63191;39.566;2.654;2023-04-19T12:57:33;27.82;38.51
74661;SHT31;63191;39.566;2.654;2023-04-19T12:59:59;28.91;35.81
74661;SHT31;63191;39.566;2.654;2023-04-19T13:02:25;29.90;33.99
74661;SHT31;63191;39.566;2.654;2023-04-19T13:04:50;30.94;32.73
74661;SHT31;63191;39.566;2.654;2023-04-19T13:07:16;32.06;30.91
74661;SHT31;63191;39.566;2.654;2023-04-19T13:09:42;32.90;29.11
74661;SHT31;63191;39.566;2.654;2023-04-19T13:12:07;33.57;28.64
74661;SHT31;63191;39.566;2.654;2023-04-19T13:14:33;34.18;27.93
74661;SHT31;63191;39.566;2.654;2023-04-19T13:16:59;34.41;26.81
74661;SHT31;63191;39.566;2.654;2023-04-19T13:19:25;34.29;26.48
74661;SHT31;63191;39.566;2.654;2023-04-19T13:21:52;34.18;26.32
74661;SHT31;63191;39.566;2.654;2023-04-19T13:24:19;33.88;26.23
74661;SHT31;63191;39.566;2.654;2023-04-19T13:26:45;33.43;26.65
74661;SHT31;63191;39.566;2.654;2023-04-19T13:29:11;32.81;27.26
74661;SHT31;63191;39.566;2.654;2023-04-19T13:31:37;32.29;27.83
74661;SHT31;63191;39.566;2.654;2023-04-19T13:34:02;31.75;28.56
74661;SHT31;63191;39.566;2.654;2023-04-19T13:36:28;31.11;29.39
74661;SHT31;63191;39.566;2.654;2023-04-19T13:38:54;30.40;30.27
74661;SHT31;63191;39.566;2.654;2023-04-19T13:41:19;29.83;31.61
74661;SHT31;63191;39.566;2.654;2023-04-19T13:43:46;29.20;32.66
74661;SHT31;63191;39.566;2.654;2023-04-19T13:46:12;28.60;33.73
74661;SHT31;63191;39.566;2.654;2023-04-19T13:48:38;28.17;34.64
74661;SHT31;63191;39.566;2.654;2023-04-19T13:51:03;27.73;34.88
74661;SHT31;63191;39.566;2.654;2023-04-19T13:53:31;27.26;35.67
74661;SHT31;63191;39.566;2.654;2023-04-19T13:55:58;26.81;36.64
74661;SHT31;63191;39.566;2.654;2023-04-19T13:58:23;26.41;37.18
74661;SHT31;63191;39.566;2.654;2023-04-19T14:00:50;26.02;38.01
74661;SHT31;63191;39.566;2.654;2023-04-19T14:03:17;25.57;39.21
74661;SHT31;63191;39.566;2.654;2023-04-19T14:05:43;25.09;40.27
74661;SHT31;63191;39.566;2.654;2023-04-19T14:08:09;24.76;40.92
74661;SHT31;63191;39.566;2.654;2023-04-19T14:10:34;24.41;41.82
74661;SHT31;63191;39.566;2.654;2023-04-19T14:13:00;24.03;42.03
74661;SHT31;63191;39.566;2.654;2023-04-19T14:15:27;23.64;43.07
74661;SHT31;63191;39.566;2.654;2023-04-19T14:17:52;23.29;44.28
74661;SHT31;63191;39.566;2.654;2023-04-19T14:20:18;23.07;45.60
74661;SHT31;63191;39.566;2.654;2023-04-19T14:22:44;22.82;46.53
74661;SHT31;63191;39.566;2.654;2023-04-19T14:25:10;22.62;46.58
74661;SHT31;63191;39.566;2.654;2023-04-19T14:27:39;22.43;47.30
74661;SHT31;63191;39.566;2.654;2023-04-19T14:30:07;22.25;47.80
74661;SHT31;63191;39.566;2.654;2023-04-19T14:32:34;22.06;48.04
74661;SHT31;63191;39.566;2.654;2023-04-19T14:35:00;21.90;48.37
74661;SHT31;63191;39.566;2.654;2023-04-19T14:37:26;21.76;49.47
74661;SHT31;63191;39.566;2.654;2023-04-19T14:39:52;21.62;50.91
74661;SHT31;63191;39.566;2.654;2023-04-19T14:42:18;21.51;50.53
74661;SHT31;63191;39.566;2.654;2023-04-19T14:44:45;21.45;51.74
74661;SHT31;63191;39.566;2.654;2023-04-19T14:47:11;21.40;52.24
74661;SHT31;63191;39.566;2.654;2023-04-19T14:49:39;21.33;52.95
74661;SHT31;63191;39.566;2.654;2023-04-19T14:52:07;21.27;53.23
74661;SHT31;63191;39.566;2.654;2023-04-19T14:54:33;21.18;53.45
74661;SHT31;63191;39.566;2.654;2023-04-19T14:56:59;21.12;53.69
74661;SHT31;63191;39.566;2.654;2023-04-19T14:59:25;21.12;53.74
74661;SHT31;63191;39.566;2.654;2023-04-19T15:01:53;21.18;53.86
74661;SHT31;63191;39.566;2.654;2023-04-19T15:04:20;21.24;53.39
74661;SHT31;63191;39.566;2.654;2023-04-19T15:06:46;21.28;51.86
74661;SHT31;63191;39.566;2.654;2023-04-19T15:09:11;21.35;52.11
74661;SHT31;63191;39.566;2.654;2023-04-19T15:11:37;21.39;51.54
74661;SHT31;63191;39.566;2.654;2023-04-19T15:14:03;21.26;52.12
74661;SHT31;63191;39.566;2.654;2023-04-19T15:16:29;21.16;52.13
74661;SHT31;63191;39.566;2.654;2023-04-19T15:18:55;21.16;52.20
74661;SHT31;63191;39.566;2.654;2023-04-19T15:21:21;21.18;52.87
74661;SHT31;63191;39.566;2.654;2023-04-19T15:23:47;21.19;53.09
74661;SHT31;63191;39.566;2.654;2023-04-19T15:26:13;21.19;52.43
74661;SHT31;63191;39.566;2.654;2023-04-19T15:28:40;21.20;51.69
74661;SHT31;63191;39.566;2.654;2023-04-19T15:31:06;21.19;52.23
74661;SHT31;63191;39.566;2.654;2023-04-19T15:33:34;21.19;52.28
74661;SHT31;63191;39.566;2.654;2023-04-19T15:36:01;21.21;52.16
74661;SHT31;63191;39.566;2.654;2023-04-19T15:38:29;21.19;52.03
74661;SHT31;63191;39.566;2.654;2023-04-19T15:40:56;21.16;52.48
74661;SHT31;63191;39.566;2.654;2023-04-19T15:43:23;21.12;52.54
74661;SHT31;63191;39.566;2.654;2023-04-19T15:45:50;21.08;52.78
74661;SHT31;63191;39.566;2.654;2023-04-19T15:48:16;21.00;52.71
74661;SHT31;63191;39.566;2.654;2023-04-19T15:50:44;20.92;53.20